Time;durP1;ratioP1;P1;durP2;ratioP2;P2;SDS_P1;SDS_P2;PMS_P1;PMS_P2;Temp;Humidity;BMP_temperature;BMP_pressure;BME280_temperature;BME280_humidity;BME280_pressure;Samples;Min_cycle;Max_cycle;Signal;HPM_P1;HPM_P2
2023/05/20 00:00:33;;;;;;;;;;;;;;;-144.99;73.45;52272.81;5030754;28;20756;-71
2023/05/20 00:02:59;;;;;;;;;;;;;;;-144.99;73.38;52256.50;5012888;28;20267;-69
2023/05/20 00:05:27;;;;;;;;;;;;;;;-144.99;73.44;52280.97;5029902;28;20012;-71
2023/05/20 00:07:54;;;;;;;;;;;;;;;-144.99;73.52;52256.50;5032209;28;19928;-71
2023/05/20 00:10:21;;;;;;;;;;;;;;;-144.99;73.46;52276.88;5031260;28;20019;-71
2023/05/20 00:12:47;;;;;;;;;;;;;;;-144.99;73.61;52268.72;5030904;28;19925;-70
2023/05/20 00:15:14;;;;;;;;;;;;;;;-144.99;73.80;52305.41;5029926;28;19929;-70
2023/05/20 00:17:42;;;;;;;;;;;;;;;-144.99;73.94;52252.44;5037036;28;19949;-68
2023/05/20 00:20:09;;;;;;;;;;;;;;;-144.99;74.13;52264.66;5036274;28;19929;-68
2023/05/20 00:22:37;;;;;;;;;;;;;;;-144.99;74.24;52297.25;5030203;28;20263;-71
2023/05/20 00:25:04;;;;;;;;;;;;;;;-144.99;74.57;52252.44;5027375;28;19988;-68
2023/05/20 00:27:31;;;;;;;;;;;;;;;-144.99;74.73;52248.34;5018613;28;19932;-69
2023/05/20 00:29:57;;;;;;;;;;;;;;;-144.99;75.08;52244.28;5030108;28;19940;-73
2023/05/20 00:32:24;;;;;;;;;;;;;;;-144.99;75.48;52268.72;5027233;28;19982;-69
2023/05/20 00:34:57;;;;;;;;;;;;;;;-144.99;75.54;52260.56;5027054;28;19932;-69
2023/05/20 00:37:24;;;;;;;;;;;;;;;-144.99;75.90;52260.56;5029517;28;20025;-67
2023/05/20 00:39:52;;;;;;;;;;;;;;;-144.99;76.15;52260.56;5029754;28;19979;-70
2023/05/20 00:42:22;;;;;;;;;;;;;;;-144.99;76.70;52285.03;5029608;28;19933;-68
2023/05/20 00:44:48;;;;;;;;;;;;;;;-144.99;77.07;52285.03;5029520;28;19926;-68
2023/05/20 00:47:15;;;;;;;;;;;;;;;-144.99;77.33;52303.38;5029245;28;19929;-70
2023/05/20 00:49:42;;;;;;;;;;;;;;;-144.99;77.82;52248.34;5029578;28;19932;-66
2023/05/20 00:52:09;;;;;;;;;;;;;;;-144.99;78.24;52256.50;5023030;28;19929;-67
2023/05/20 00:54:35;;;;;;;;;;;;;;;-144.99;78.68;52268.72;5029581;28;19925;-69
2023/05/20 00:57:05;;;;;;;;;;;;;;;-144.99;78.89;52301.34;5028517;28;20321;-67
2023/05/20 00:59:32;;;;;;;;;;;;;;;-144.99;79.34;52276.88;5028109;28;20156;-67
2023/05/20 01:02:00;;;;;;;;;;;;;;;-144.99;79.46;52227.97;5031770;28;19937;-67
2023/05/20 01:04:27;;;;;;;;;;;;;;;-144.99;79.89;52260.56;5029662;28;19971;-66
2023/05/20 01:06:54;;;;;;;;;;;;;;;-144.99;80.50;52252.44;5029014;28;19925;-68
2023/05/20 01:09:21;;;;;;;;;;;;;;;-144.99;80.85;52272.81;5029531;28;20305;-67
2023/05/20 01:11:51;;;;;;;;;;;;;;;-144.99;81.69;52280.97;5019696;28;19929;-67
2023/05/20 01:14:21;;;;;;;;;;;;;;;-144.99;81.83;52223.88;5021751;28;19971;-67
2023/05/20 01:16:49;;;;;;;;;;;;;;;-144.99;82.45;52293.19;5029378;28;20379;-67
2023/05/20 01:19:22;;;;;;;;;;;;;;;-144.99;83.05;52287.06;5029768;28;19932;-65
2023/05/20 01:21:49;;;;;;;;;;;;;;;-144.99;82.20;52260.56;5029715;28;19936;-68
2023/05/20 01:24:17;;;;;;;;;;;;;;;-144.99;82.70;52223.88;5027947;28;19995;-65
2023/05/20 01:26:47;;;;;;;;;;;;;;;-144.99;83.89;52293.19;5021508;28;19925;-65
2023/05/20 01:29:17;;;;;;;;;;;;;;;-144.99;84.38;52256.50;5024826;28;20315;-65
2023/05/20 01:31:44;;;;;;;;;;;;;;;-144.99;84.66;52272.81;5012549;28;20387;-66
2023/05/20 01:34:11;;;;;;;;;;;;;;;-144.99;84.71;52244.28;5026036;28;19940;-66
2023/05/20 01:36:38;;;;;;;;;;;;;;;-144.99;84.97;52248.34;5029864;28;20374;-66
2023/05/20 01:39:05;;;;;;;;;;;;;;;-144.99;85.33;52293.19;5029278;28;19933;-68
2023/05/20 01:41:35;;;;;;;;;;;;;;;-144.99;85.47;52272.81;5029448;28;19929;-66
2023/05/20 01:44:02;;;;;;;;;;;;;;;-144.99;85.42;52240.19;5032867;28;19929;-66
2023/05/20 01:46:32;;;;;;;;;;;;;;;-144.99;85.65;52256.50;5032201;28;20394;-66
2023/05/20 01:48:59;;;;;;;;;;;;;;;-144.99;85.77;52258.53;5027722;28;19940;-68
2023/05/20 01:51:25;;;;;;;;;;;;;;;-144.99;85.91;52211.66;5031429;28;19936;-67
2023/05/20 01:53:52;;;;;;;;;;;;;;;-144.99;86.00;52260.56;5033402;28;19932;-67
2023/05/20 01:56:18;;;;;;;;;;;;;;;-144.99;86.05;52254.47;5033335;28;19925;-67
2023/05/20 01:58:46;;;;;;;;;;;;;;;-144.99;86.20;52240.19;5030641;28;19929;-63
2023/05/20 02:01:13;;;;;;;;;;;;;;;-144.99;86.19;52270.78;5033553;28;19948;-64
2023/05/20 02:03:40;;;;;;;;;;;;;;;-144.99;86.26;52260.56;5031815;28;19925;-62
2023/05/20 02:06:06;;;;;;;;;;;;;;;-144.99;86.57;52225.94;5033538;28;19929;-64
2023/05/20 02:08:33;;;;;;;;;;;;;;;-144.99;87.05;52244.28;5034564;28;20208;-61
2023/05/20 02:10:59;;;;;;;;;;;;;;;-144.99;86.90;52260.56;5025026;28;19925;-63
2023/05/20 02:13:26;;;;;;;;;;;;;;;-144.99;86.82;52293.19;5027124;28;20402;-64
2023/05/20 02:15:54;;;;;;;;;;;;;;;-144.99;86.84;52264.66;5029512;28;19929;-64
2023/05/20 02:18:21;;;;;;;;;;;;;;;-144.99;86.85;52278.91;5032606;28;19932;-63
2023/05/20 02:20:47;;;;;;;;;;;;;;;-144.99;86.91;52252.44;5024961;28;19932;-63
2023/05/20 02:23:14;;;;;;;;;;;;;;;-144.99;87.02;52301.34;5033163;28;19925;-64
2023/05/20 02:25:41;;;;;;;;;;;;;;;-144.99;87.20;52264.66;5033705;28;20048;-63
2023/05/20 02:28:11;;;;;;;;;;;;;;;-144.99;87.23;52203.50;5032799;28;19933;-63
2023/05/20 02:30:38;;;;;;;;;;;;;;;-144.99;87.26;52268.72;5033884;28;19929;-67
2023/05/20 02:33:08;;;;;;;;;;;;;;;-144.99;87.35;52276.88;5033344;28;20153;-62
2023/05/20 02:35:35;;;;;;;;;;;;;;;-144.99;87.27;52260.56;5033119;28;20516;-62
2023/05/20 02:38:01;;;;;;;;;;;;;;;-144.99;87.30;52305.41;5032396;28;19936;-63
2023/05/20 02:40:28;;;;;;;;;;;;;;;-144.99;87.48;52252.44;5029229;28;19932;-64
2023/05/20 02:42:55;;;;;;;;;;;;;;;-144.99;87.63;52299.31;5033261;28;19925;-63
2023/05/20 02:45:21;;;;;;;;;;;;;;;-144.99;87.69;52232.03;5024501;28;19925;-63
2023/05/20 02:47:48;;;;;;;;;;;;;;;-144.99;87.58;52280.97;5032090;28;19926;-63
2023/05/20 02:50:16;;;;;;;;;;;;;;;-144.99;87.65;52227.97;5029279;28;19925;-64
2023/05/20 02:52:44;;;;;;;;;;;;;;;-144.99;87.90;52264.66;5032849;28;19925;-63
2023/05/20 02:55:11;;;;;;;;;;;;;;;-144.99;88.04;52289.13;5025093;28;19975;-63
2023/05/20 02:57:38;;;;;;;;;;;;;;;-144.99;87.93;52256.50;5027448;28;19936;-64
2023/05/20 03:00:06;;;;;;;;;;;;;;;-144.99;87.97;52268.72;5032882;28;19991;-64
2023/05/20 03:02:32;;;;;;;;;;;;;;;-144.99;88.38;52227.97;5032777;28;19936;-64
2023/05/20 03:05:01;;;;;;;;;;;;;;;-144.99;88.44;52260.56;5031064;28;20498;-70
2023/05/20 03:07:29;;;;;;;;;;;;;;;-144.99;88.31;52276.88;5026013;28;19929;-67
2023/05/20 03:09:57;;;;;;;;;;;;;;;-144.99;88.18;52264.66;5034249;28;19985;-67
2023/05/20 03:12:25;;;;;;;;;;;;;;;-144.99;88.03;52240.19;5035555;28;20076;-66
2023/05/20 03:14:54;;;;;;;;;;;;;;;-144.99;88.23;52285.03;5029266;28;20020;-69
2023/05/20 03:17:20;;;;;;;;;;;;;;;-144.99;88.27;52232.03;5031624;28;20345;-65
2023/05/20 03:19:47;;;;;;;;;;;;;;;-144.99;88.48;52262.63;5031828;28;20500;-66
2023/05/20 03:22:14;;;;;;;;;;;;;;;-144.99;88.62;52260.56;5024721;28;19925;-66
2023/05/20 03:24:43;;;;;;;;;;;;;;;-144.99;88.72;52213.69;5032792;28;20302;-66
2023/05/20 03:27:09;;;;;;;;;;;;;;;-144.99;88.98;52244.28;5028990;28;19926;-66
2023/05/20 03:29:36;;;;;;;;;;;;;;;-144.99;89.20;52266.69;5031390;28;19936;-65
2023/05/20 03:32:03;;;;;;;;;;;;;;;-144.99;89.37;52240.19;5031148;28;19929;-65
2023/05/20 03:34:30;;;;;;;;;;;;;;;-144.99;89.51;52250.38;5031396;28;19925;-66
2023/05/20 03:36:58;;;;;;;;;;;;;;;-144.99;89.48;52252.44;5031807;28;19929;-66
2023/05/20 03:39:25;;;;;;;;;;;;;;;-144.99;89.54;52276.88;5020017;28;19925;-68
2023/05/20 03:41:53;;;;;;;;;;;;;;;-144.99;89.50;52248.34;5015466;28;19932;-68
2023/05/20 03:44:20;;;;;;;;;;;;;;;-144.99;86.80;52250.38;5024345;28;20306;-68
2023/05/20 03:46:46;;;;;;;;;;;;;;;-144.99;86.39;52232.03;5025155;28;20004;-65
2023/05/20 03:49:13;;;;;;;;;;;;;;;-144.99;88.55;52242.22;5030804;28;20287;-66
2023/05/20 03:51:40;;;;;;;;;;;;;;;-144.99;89.48;52244.28;5029963;28;19929;-65
2023/05/20 03:54:06;;;;;;;;;;;;;;;-144.99;89.89;52264.66;5034592;28;20440;-67
2023/05/20 03:56:33;;;;;;;;;;;;;;;-144.99;90.32;52248.34;5034927;28;20414;-66
2023/05/20 03:59:01;;;;;;;;;;;;;;;-144.99;90.20;52248.34;5028245;28;19936;-66
2023/05/20 04:01:28;;;;;;;;;;;;;;;-144.99;90.24;52252.44;5022502;28;19925;-66
2023/05/20 04:03:54;;;;;;;;;;;;;;;-144.99;90.21;52280.97;5030599;28;19925;-65
2023/05/20 04:06:21;;;;;;;;;;;;;;;-144.99;90.11;52252.44;5031178;28;19925;-69
2023/05/20 04:08:48;;;;;;;;;;;;;;;-144.99;90.22;52248.34;5031480;28;19980;-65
2023/05/20 04:11:14;;;;;;;;;;;;;;;-144.99;90.20;52219.81;5030956;28;20321;-65
2023/05/20 04:13:41;;;;;;;;;;;;;;;-144.99;90.09;52264.66;5028761;28;19933;-66
2023/05/20 04:16:09;;;;;;;;;;;;;;;-144.99;90.27;52242.22;5026535;28;19936;-65
2023/05/20 04:18:37;;;;;;;;;;;;;;;-144.99;90.18;52248.34;5031024;28;19925;-67
2023/05/20 04:21:04;;;;;;;;;;;;;;;-144.99;90.19;52236.13;5030735;28;19928;-66
2023/05/20 04:23:31;;;;;;;;;;;;;;;-144.99;90.10;52248.34;5030763;28;19925;-66
2023/05/20 04:26:01;;;;;;;;;;;;;;;-144.99;90.05;52232.03;5028779;28;19971;-64
2023/05/20 04:28:30;;;;;;;;;;;;;;;-144.99;90.20;52199.44;5026793;28;20295;-71
2023/05/20 04:31:01;;;;;;;;;;;;;;;-144.99;90.06;52240.19;5028370;28;20467;-67
2023/05/20 04:33:29;;;;;;;;;;;;;;;-144.99;90.09;52244.28;5027251;28;19925;-68
2023/05/20 04:35:57;;;;;;;;;;;;;;;-144.99;89.85;52236.13;5025368;28;19925;-68
2023/05/20 04:38:28;;;;;;;;;;;;;;;-144.99;89.60;52248.34;5025279;28;19925;-69
2023/05/20 04:40:56;;;;;;;;;;;;;;;-144.99;89.59;52207.59;5029237;28;19942;-65
2023/05/20 04:43:23;;;;;;;;;;;;;;;-144.99;89.55;52227.97;5025397;28;20386;-64
2023/05/20 04:45:50;;;;;;;;;;;;;;;-144.99;89.36;52232.03;5021311;28;19936;-64
2023/05/20 04:48:16;;;;;;;;;;;;;;;-144.99;89.32;52240.19;5029795;28;19978;-62
2023/05/20 04:50:44;;;;;;;;;;;;;;;-144.99;89.23;52211.66;5026971;28;19926;-66
2023/05/20 04:53:11;;;;;;;;;;;;;;;-144.99;89.55;52232.03;5021005;28;19936;-66
2023/05/20 04:55:38;;;;;;;;;;;;;;;-144.99;89.71;52195.34;5030353;28;19936;-73
2023/05/20 04:58:06;;;;;;;;;;;;;;;-144.99;89.74;52211.66;5026387;28;19933;-68
2023/05/20 05:00:33;;;;;;;;;;;;;;;-144.99;89.95;52232.03;5030166;28;20024;-67
2023/05/20 05:03:00;;;;;;;;;;;;;;;-144.99;89.79;52219.81;5030173;28;19936;-67
2023/05/20 05:05:26;;;;;;;;;;;;;;;-144.99;89.86;52244.28;5027757;28;20029;-67
2023/05/20 05:07:55;;;;;;;;;;;;;;;-144.99;90.28;52244.28;5022985;28;20302;-68
2023/05/20 05:10:23;;;;;;;;;;;;;;;-144.99;89.96;52195.34;5030941;28;19926;-69
2023/05/20 05:12:50;;;;;;;;;;;;;;;-144.99;89.95;52207.59;5029292;28;19948;-69
2023/05/20 05:15:17;;;;;;;;;;;;;;;-144.99;89.58;52183.13;5027845;28;20068;-68
2023/05/20 05:17:43;;;;;;;;;;;;;;;-144.99;89.52;52236.13;5029852;28;19925;-69
2023/05/20 05:20:10;;;;;;;;;;;;;;;-144.99;89.41;52179.06;5032636;28;19930;-68
2023/05/20 05:22:38;;;;;;;;;;;;;;;-144.99;89.42;52183.13;5030374;28;20017;-69
2023/05/20 05:25:07;;;;;;;;;;;;;;;-144.99;89.42;52197.41;5030216;28;19937;-67
2023/05/20 05:27:33;;;;;;;;;;;;;;;-144.99;89.21;52219.81;5029059;28;19948;-68
2023/05/20 05:30:00;;;;;;;;;;;;;;;-144.99;89.07;52207.59;5029558;28;20321;-68
2023/05/20 05:32:27;;;;;;;;;;;;;;;-144.99;89.16;52223.88;5012967;28;20145;-70
2023/05/20 05:34:53;;;;;;;;;;;;;;;-144.99;88.84;52205.53;5030667;28;20282;-68
2023/05/20 05:37:20;;;;;;;;;;;;;;;-144.99;88.67;52223.88;5030272;28;19925;-69
2023/05/20 05:39:47;;;;;;;;;;;;;;;-144.99;88.39;52215.75;5030497;28;19940;-68
2023/05/20 05:42:15;;;;;;;;;;;;;;;-144.99;88.62;52199.44;5030665;28;19933;-68
2023/05/20 05:44:41;;;;;;;;;;;;;;;-144.99;88.12;52223.88;5030276;28;19983;-67
2023/05/20 05:47:08;;;;;;;;;;;;;;;-144.99;87.66;52215.75;5029810;28;19936;-68
2023/05/20 05:49:35;;;;;;;;;;;;;;;-144.99;87.56;52199.44;5029888;28;19928;-67
2023/05/20 05:52:01;;;;;;;;;;;;;;;-144.99;87.40;52236.13;5024510;28;19929;-67
2023/05/20 05:54:28;;;;;;;;;;;;;;;-144.99;87.59;52209.63;5019082;28;20287;-69
2023/05/20 05:56:56;;;;;;;;;;;;;;;-144.99;87.37;52154.59;5011947;28;19932;-68
2023/05/20 05:59:24;;;;;;;;;;;;;;;-144.99;87.13;52199.44;5018363;28;19987;-68
2023/05/20 06:01:51;;;;;;;;;;;;;;;-144.99;87.25;52181.09;5031555;28;19929;-68
2023/05/20 06:04:17;;;;;;;;;;;;;;;-144.99;86.96;52211.66;5038919;28;19925;-69
2023/05/20 06:06:44;;;;;;;;;;;;;;;-144.99;86.82;52183.13;5031969;28;19947;-62
2023/05/20 06:09:10;;;;;;;;;;;;;;;-144.99;86.44;52166.81;5016000;28;20297;-63
2023/05/20 06:11:37;;;;;;;;;;;;;;;-144.99;86.33;52199.44;5023553;28;19929;-63
2023/05/20 06:14:04;;;;;;;;;;;;;;;-144.99;86.40;52179.06;5023067;28;19929;-64
2023/05/20 06:16:32;;;;;;;;;;;;;;;-144.99;85.79;52177.00;5021593;28;20012;-64
2023/05/20 06:18:58;;;;;;;;;;;;;;;-144.99;85.28;52187.19;5019114;28;19933;-63
2023/05/20 06:21:25;;;;;;;;;;;;;;;-144.99;84.87;52199.44;5018831;28;20216;-63
2023/05/20 06:23:52;;;;;;;;;;;;;;;-144.99;84.30;52166.81;5028915;28;20020;-65
2023/05/20 06:26:18;;;;;;;;;;;;;;;-144.99;83.89;52150.53;5020536;28;19933;-65
2023/05/20 06:28:45;;;;;;;;;;;;;;;-144.99;83.38;52187.19;5024081;28;19947;-63
2023/05/20 06:31:12;;;;;;;;;;;;;;;-144.99;83.00;52168.84;5028357;28;19929;-62
2023/05/20 06:33:40;;;;;;;;;;;;;;;-144.99;82.74;52189.25;5026541;28;19926;-63
2023/05/20 06:36:07;;;;;;;;;;;;;;;-144.99;82.44;52179.06;5029713;28;19930;-62
2023/05/20 06:38:33;;;;;;;;;;;;;;;-144.99;82.15;52179.06;5020504;28;19937;-64
2023/05/20 06:41:00;;;;;;;;;;;;;;;-144.99;81.83;52158.66;5031811;28;19925;-65
2023/05/20 06:43:26;;;;;;;;;;;;;;;-144.99;81.07;52203.50;5031482;28;19932;-64
2023/05/20 06:45:53;;;;;;;;;;;;;;;-144.99;81.38;52187.19;5034221;28;19913;-67
2023/05/20 06:48:20;;;;;;;;;;;;;;;-144.99;81.10;52191.28;5030786;28;19925;-67
2023/05/20 06:50:48;;;;;;;;;;;;;;;-144.99;80.82;52160.72;5031968;28;20275;-66
2023/05/20 06:53:15;;;;;;;;;;;;;;;-144.99;80.42;52154.59;5023940;28;20004;-67
2023/05/20 06:55:42;;;;;;;;;;;;;;;-144.99;80.08;52142.38;5031408;28;20392;-67
2023/05/20 06:58:09;;;;;;;;;;;;;;;-144.99;79.41;52146.44;5031016;28;19925;-66
2023/05/20 07:00:35;;;;;;;;;;;;;;;-144.99;79.00;52138.28;5028847;28;20302;-65
2023/05/20 07:03:02;;;;;;;;;;;;;;;-144.99;78.77;52138.28;5031394;28;19933;-67
2023/05/20 07:05:30;;;;;;;;;;;;;;;-144.99;78.33;52154.59;5031230;28;19929;-66
2023/05/20 07:07:58;;;;;;;;;;;;;;;-144.99;78.77;52111.78;5026405;28;19990;-65
2023/05/20 07:10:24;;;;;;;;;;;;;;;-144.99;78.31;52109.75;5026825;28;19932;-65
2023/05/20 07:12:51;;;;;;;;;;;;;;;-144.99;78.43;52124.03;5031056;28;19940;-64
2023/05/20 07:15:18;;;;;;;;;;;;;;;-144.99;78.72;52170.91;5024361;28;19933;-65
2023/05/20 07:17:45;;;;;;;;;;;;;;;-144.99;77.65;52166.81;5028362;28;19925;-64
2023/05/20 07:20:11;;;;;;;;;;;;;;;-144.99;77.26;52126.06;5023749;28;19929;-64
2023/05/20 07:22:38;;;;;;;;;;;;;;;-144.99;76.95;52126.06;5031309;28;20398;-66
2023/05/20 07:25:07;;;;;;;;;;;;;;;-144.99;76.71;52117.91;5030852;28;19940;-64
2023/05/20 07:27:33;;;;;;;;;;;;;;;-144.99;76.80;52138.28;5030158;28;19929;-65
2023/05/20 07:30:00;;;;;;;;;;;;;;;-144.99;75.95;52109.75;5030939;28;20213;-63
2023/05/20 07:32:26;;;;;;;;;;;;;;;-144.99;74.88;52138.28;5030856;28;19932;-72
2023/05/20 07:34:53;;;;;;;;;;;;;;;-144.99;74.82;52138.28;5016720;28;20395;-68
2023/05/20 07:37:20;;;;;;;;;;;;;;;-144.99;73.94;52109.75;5024191;28;19925;-67
2023/05/20 07:39:47;;;;;;;;;;;;;;;-144.99;74.07;52085.31;5026612;28;19925;-67
2023/05/20 07:42:15;;;;;;;;;;;;;;;-144.99;73.42;52073.06;5024117;28;19934;-67
2023/05/20 07:44:41;;;;;;;;;;;;;;;-144.99;73.21;52121.97;5025753;28;19936;-67
2023/05/20 07:47:08;;;;;;;;;;;;;;;-144.99;73.01;52083.25;5029782;28;19964;-67
2023/05/20 07:49:34;;;;;;;;;;;;;;;-144.99;72.99;52101.59;5030314;28;20344;-66
2023/05/20 07:52:01;;;;;;;;;;;;;;;-144.99;72.55;52107.72;5021012;28;19933;-67
2023/05/20 07:54:28;;;;;;;;;;;;;;;-144.99;72.27;52085.31;5024663;28;19925;-66
2023/05/20 07:56:54;;;;;;;;;;;;;;;-144.99;71.90;52113.84;5027162;28;20418;-68
2023/05/20 07:59:22;;;;;;;;;;;;;;;-144.99;72.08;52117.91;5023029;28;19933;-67
2023/05/20 08:01:49;;;;;;;;;;;;;;;-144.99;71.73;52101.59;5028293;28;19925;-67
2023/05/20 08:04:15;;;;;;;;;;;;;;;-144.99;71.78;52069.00;5018698;28;19925;-67
2023/05/20 08:06:43;;;;;;;;;;;;;;;-144.99;71.62;52111.78;5028261;28;19928;-67
2023/05/20 08:09:10;;;;;;;;;;;;;;;-144.99;71.79;52099.56;5025344;28;19926;-68
2023/05/20 08:11:36;;;;;;;;;;;;;;;-144.99;71.40;52101.59;5022020;28;20418;-68
2023/05/20 08:14:03;;;;;;;;;;;;;;;-144.99;71.16;52089.38;5030075;28;19929;-68
2023/05/20 08:16:31;;;;;;;;;;;;;;;-144.99;71.24;52085.31;5027371;28;19928;-67
2023/05/20 08:18:57;;;;;;;;;;;;;;;-144.99;70.60;52087.34;5029398;28;19925;-67
2023/05/20 08:21:24;;;;;;;;;;;;;;;-144.99;71.00;52093.44;5021876;28;19925;-68
2023/05/20 08:23:51;;;;;;;;;;;;;;;-144.99;71.00;52093.44;5026491;28;20313;-68
2023/05/20 08:26:17;;;;;;;;;;;;;;;-144.99;71.79;52146.44;5014404;28;19930;-67
2023/05/20 08:28:44;;;;;;;;;;;;;;;-144.99;71.78;52089.38;5028003;28;19925;-68
2023/05/20 08:31:10;;;;;;;;;;;;;;;-144.99;71.66;52156.63;5029665;28;19936;-67
2023/05/20 08:33:38;;;;;;;;;;;;;;;-144.99;71.80;52101.59;5028997;28;20318;-67
2023/05/20 08:36:07;;;;;;;;;;;;;;;-144.99;72.35;52109.75;5029825;28;20406;-68
2023/05/20 08:38:33;;;;;;;;;;;;;;;-144.99;72.22;52126.06;5028270;28;20321;-68
2023/05/20 08:41:00;;;;;;;;;;;;;;;-144.99;71.78;52134.22;5029618;28;20421;-67
2023/05/20 08:43:27;;;;;;;;;;;;;;;-144.99;71.00;52093.44;5030069;28;19930;-68
2023/05/20 08:45:53;;;;;;;;;;;;;;;-144.99;71.02;52117.91;5028586;28;19925;-67
2023/05/20 08:48:22;;;;;;;;;;;;;;;-144.99;70.57;52095.50;5025029;28;19929;-69
2023/05/20 08:50:51;;;;;;;;;;;;;;;-144.99;70.62;52117.91;5024466;28;19933;-67
2023/05/20 08:53:18;;;;;;;;;;;;;;;-144.99;70.63;52064.91;5025317;28;20405;-69
2023/05/20 08:55:47;;;;;;;;;;;;;;;-144.99;70.39;52073.06;5038016;28;19925;-69
2023/05/20 08:58:16;;;;;;;;;;;;;;;-144.99;70.25;52113.84;5030091;28;19925;-68
2023/05/20 09:00:43;;;;;;;;;;;;;;;-144.99;69.91;52113.84;5025509;28;19983;-69
2023/05/20 09:03:10;;;;;;;;;;;;;;;-144.99;69.85;52077.16;5028981;28;19929;-68
2023/05/20 09:05:37;;;;;;;;;;;;;;;-144.99;69.71;52056.78;5029126;28;19960;-68
2023/05/20 09:08:08;;;;;;;;;;;;;;;-144.99;69.73;52056.78;5027999;28;20271;-70
2023/05/20 09:10:35;;;;;;;;;;;;;;;-144.99;68.72;52130.13;5022797;28;20624;-67
2023/05/20 09:13:03;;;;;;;;;;;;;;;-144.99;68.41;52101.59;5027782;28;20377;-69
2023/05/20 09:15:30;;;;;;;;;;;;;;;-144.99;68.03;52117.91;5028027;28;20405;-69
2023/05/20 09:17:59;;;;;;;;;;;;;;;-144.99;68.23;52069.00;5026810;28;19932;-68
2023/05/20 09:20:28;;;;;;;;;;;;;;;-144.99;68.11;52044.53;5028226;28;19925;-67
2023/05/20 09:22:55;;;;;;;;;;;;;;;-144.99;68.04;52054.72;5027937;28;19925;-69
2023/05/20 09:25:23;;;;;;;;;;;;;;;-144.99;67.18;52085.31;5024448;28;19932;-68
2023/05/20 09:27:50;;;;;;;;;;;;;;;-144.99;67.04;52121.97;5023168;28;19929;-67
2023/05/20 09:30:18;;;;;;;;;;;;;;;-144.99;67.04;52113.84;5024044;28;19929;-69
2023/05/20 09:32:45;;;;;;;;;;;;;;;-144.99;67.50;52081.22;5027650;28;19925;-68
2023/05/20 09:35:13;;;;;;;;;;;;;;;-144.99;67.70;52081.22;5024881;28;19948;-69
2023/05/20 09:37:42;;;;;;;;;;;;;;;-144.99;67.32;52083.25;5031825;28;19932;-69
2023/05/20 09:40:12;;;;;;;;;;;;;;;-144.99;66.88;52075.09;5025499;28;20339;-68
2023/05/20 09:42:42;;;;;;;;;;;;;;;-144.99;66.29;52081.22;5023087;28;19929;-68
2023/05/20 09:45:09;;;;;;;;;;;;;;;-144.99;67.15;52105.69;5029744;28;19951;-69
2023/05/20 09:47:39;;;;;;;;;;;;;;;-144.99;67.89;52077.16;5029707;28;19964;-68
2023/05/20 09:50:07;;;;;;;;;;;;;;;-144.99;67.30;52113.84;5021065;28;20114;-68
2023/05/20 09:52:34;;;;;;;;;;;;;;;-144.99;67.31;52101.59;5017508;28;20354;-70
2023/05/20 09:55:02;;;;;;;;;;;;;;;-144.99;67.21;52083.25;5026507;28;19937;-69
2023/05/20 09:57:30;;;;;;;;;;;;;;;-144.99;66.92;52081.22;5025818;28;20306;-68
2023/05/20 09:59:58;;;;;;;;;;;;;;;-144.99;66.43;52105.69;5021046;28;20016;-67
2023/05/20 10:02:25;;;;;;;;;;;;;;;-144.99;65.81;52085.31;5020565;28;19925;-68
2023/05/20 10:04:53;;;;;;;;;;;;;;;-144.99;65.69;52077.16;5027516;28;19925;-69
2023/05/20 10:07:38;;;;;;;;;;;;;;;-144.99;65.84;52101.59;5016903;28;19929;-69
2023/05/20 10:10:10;;;;;;;;;;;;;;;-144.99;64.78;52069.00;4991803;28;20298;-69
2023/05/20 10:12:41;;;;;;;;;;;;;;;-144.99;64.93;52056.78;5027827;28;19937;-68
2023/05/20 10:15:16;;;;;;;;;;;;;;;-144.99;64.58;52069.00;5031396;28;19926;-68
2023/05/20 10:17:46;;;;;;;;;;;;;;;-144.99;65.73;52105.69;5031892;28;19943;-68
2023/05/20 10:20:13;;;;;;;;;;;;;;;-144.99;66.11;52105.69;5032642;28;19925;-68
2023/05/20 10:22:40;;;;;;;;;;;;;;;-144.99;66.63;52085.31;5029361;28;19925;-68
2023/05/20 10:25:07;;;;;;;;;;;;;;;-144.99;67.12;52168.84;5025890;28;19959;-69
2023/05/20 10:27:44;;;;;;;;;;;;;;;-144.99;67.85;52130.13;5027594;28;19925;-69
2023/05/20 10:30:22;;;;;;;;;;;;;;;-144.99;67.95;52134.22;5031922;28;19933;-68
2023/05/20 10:32:49;;;;;;;;;;;;;;;-144.99;68.34;52158.66;5030647;28;20452;-68
2023/05/20 10:35:20;;;;;;;;;;;;;;;-144.99;68.14;52105.69;5023969;28;20522;-68
2023/05/20 10:37:48;;;;;;;;;;;;;;;-144.99;68.18;52121.97;5031705;28;20308;-69
2023/05/20 10:40:15;;;;;;;;;;;;;;;-144.99;67.80;52128.09;5031885;28;19928;-68
2023/05/20 10:42:43;;;;;;;;;;;;;;;-144.99;68.04;52158.66;5031711;28;19933;-69
2023/05/20 10:45:10;;;;;;;;;;;;;;;-144.99;68.25;52140.31;5031408;28;19986;-68
2023/05/20 10:47:42;;;;;;;;;;;;;;;-144.99;68.36;52156.63;5018924;28;19929;-67
2023/05/20 10:50:26;;;;;;;;;;;;;;;-144.99;68.59;52187.19;5030937;28;20316;-68
2023/05/20 10:52:53;;;;;;;;;;;;;;;-144.99;69.19;52156.63;5025094;28;20298;-68
2023/05/20 10:55:21;;;;;;;;;;;;;;;-144.99;69.59;52138.28;5024120;28;19928;-69
2023/05/20 10:57:48;;;;;;;;;;;;;;;-144.99;70.42;52172.94;5030721;28;19936;-68
2023/05/20 11:00:15;;;;;;;;;;;;;;;-144.99;70.52;52126.06;5029776;28;19948;-68
2023/05/20 11:02:43;;;;;;;;;;;;;;;-144.99;70.56;52164.78;5031181;28;20315;-68
2023/05/20 11:05:11;;;;;;;;;;;;;;;-144.99;70.63;52146.44;5043844;28;20032;-69
2023/05/20 11:07:38;;;;;;;;;;;;;;;-144.99;70.92;52154.59;5041989;28;20312;-68
2023/05/20 11:10:07;;;;;;;;;;;;;;;-144.99;70.92;52170.91;5032134;28;20294;-68
2023/05/20 11:12:34;;;;;;;;;;;;;;;-144.99;71.44;52170.91;5024072;28;20314;-69
2023/05/20 11:15:01;;;;;;;;;;;;;;;-144.99;71.72;52146.44;5031439;28;19929;-68
2023/05/20 11:17:28;;;;;;;;;;;;;;;-144.99;70.86;52183.13;5030740;28;20329;-68
2023/05/20 11:19:59;;;;;;;;;;;;;;;-144.99;70.79;52140.31;5025600;28;20276;-69
2023/05/20 11:22:26;;;;;;;;;;;;;;;-144.99;70.69;52166.81;5037223;28;19937;-68
2023/05/20 11:24:52;;;;;;;;;;;;;;;-144.99;70.84;52174.97;5022134;28;20020;-67
2023/05/20 11:27:19;;;;;;;;;;;;;;;-144.99;71.22;52146.44;5027620;28;19941;-67
2023/05/20 11:29:49;;;;;;;;;;;;;;;-144.99;71.31;52142.38;5022736;28;19925;-68
2023/05/20 11:32:16;;;;;;;;;;;;;;;-144.99;71.08;52150.53;5023415;28;19925;-68
2023/05/20 11:34:42;;;;;;;;;;;;;;;-144.99;70.80;52117.91;5030975;28;20004;-69
2023/05/20 11:37:11;;;;;;;;;;;;;;;-144.99;70.31;52117.91;5023373;28;19932;-68
2023/05/20 11:39:38;;;;;;;;;;;;;;;-144.99;70.00;52158.66;5031183;28;19925;-67
2023/05/20 11:42:05;;;;;;;;;;;;;;;-144.99;69.69;52121.97;5030260;28;20283;-67
2023/05/20 11:44:31;;;;;;;;;;;;;;;-144.99;69.68;52126.06;5013188;28;19929;-68
2023/05/20 11:46:59;;;;;;;;;;;;;;;-144.99;69.98;52170.91;5033373;28;19936;-69
2023/05/20 11:49:26;;;;;;;;;;;;;;;-144.99;70.51;52158.66;5041874;28;19952;-67
2023/05/20 11:51:53;;;;;;;;;;;;;;;-144.99;70.78;52168.84;5023041;28;19925;-67
2023/05/20 11:54:22;;;;;;;;;;;;;;;-144.99;71.02;52142.38;5030553;28;19949;-68
2023/05/20 11:56:48;;;;;;;;;;;;;;;-144.99;71.08;52130.13;5030066;28;19929;-68
2023/05/20 11:59:15;;;;;;;;;;;;;;;-144.99;70.64;52166.81;5028470;28;20409;-68
2023/05/20 12:01:42;;;;;;;;;;;;;;;-144.99;70.59;52146.44;5022223;28;19947;-67
2023/05/20 12:04:09;;;;;;;;;;;;;;;-144.99;70.79;52154.59;5021549;28;19929;-68
2023/05/20 12:06:37;;;;;;;;;;;;;;;-144.99;71.19;52172.94;5025544;28;19933;-68
2023/05/20 12:09:05;;;;;;;;;;;;;;;-144.99;71.19;52164.78;5028719;28;20005;-67
2023/05/20 12:11:34;;;;;;;;;;;;;;;-144.99;71.56;52168.84;5025113;28;19937;-67
2023/05/20 12:14:01;;;;;;;;;;;;;;;-144.99;71.78;52181.09;5024933;28;19929;-67
2023/05/20 12:16:27;;;;;;;;;;;;;;;-144.99;72.08;52130.13;5027958;28;19969;-68
2023/05/20 12:18:54;;;;;;;;;;;;;;;-144.99;71.61;52170.91;5021354;28;20471;-67
2023/05/20 12:21:20;;;;;;;;;;;;;;;-144.99;71.82;52150.53;5029677;28;19936;-67
2023/05/20 12:23:47;;;;;;;;;;;;;;;-144.99;71.67;52117.91;5028163;28;20359;-67
2023/05/20 12:26:13;;;;;;;;;;;;;;;-144.99;71.79;52187.19;5025345;28;19928;-67
2023/05/20 12:28:42;;;;;;;;;;;;;;;-144.99;71.46;52166.81;5044090;28;19913;-69